sensor_id;sensor_type;location;lat;lon;timestamp;P1;durP1;ratioP1;P2;durP2;ratioP2
11548;SDS011;61444;59.472;18.306;2023-12-07T00:01:54;5.47;;;3.37;;
11548;SDS011;61444;59.472;18.306;2023-12-07T00:04:03;7.37;;;3.73;;
11548;SDS011;61444;59.472;18.306;2023-12-07T00:06:12;8.23;;;4.47;;
11548;SDS011;61444;59.472;18.306;2023-12-07T00:08:23;10.30;;;4.23;;
11548;SDS011;61444;59.472;18.306;2023-12-07T00:10:30;7.60;;;3.50;;
11548;SDS011;61444;59.472;18.306;2023-12-07T00:12:39;14.80;;;7.33;;
11548;SDS011;61444;59.472;18.306;2023-12-07T00:14:48;13.20;;;5.47;;
11548;SDS011;61444;59.472;18.306;2023-12-07T00:16:58;8.27;;;4.43;;
11548;SDS011;61444;59.472;18.306;2023-12-07T00:19:06;8.03;;;3.40;;
11548;SDS011;61444;59.472;18.306;2023-12-07T00:21:21;6.53;;;3.70;;
11548;SDS011;61444;59.472;18.306;2023-12-07T00:23:32;9.63;;;3.60;;
11548;SDS011;61444;59.472;18.306;2023-12-07T00:25:41;6.33;;;3.63;;
11548;SDS011;61444;59.472;18.306;2023-12-07T00:27:49;7.73;;;3.63;;
11548;SDS011;61444;59.472;18.306;2023-12-07T00:29:59;7.53;;;3.60;;
11548;SDS011;61444;59.472;18.306;2023-12-07T00:32:08;8.80;;;4.30;;
11548;SDS011;61444;59.472;18.306;2023-12-07T00:34:16;8.57;;;3.87;;
11548;SDS011;61444;59.472;18.306;2023-12-07T00:36:25;8.07;;;3.67;;
11548;SDS011;61444;59.472;18.306;2023-12-07T00:38:36;9.20;;;4.10;;
11548;SDS011;61444;59.472;18.306;2023-12-07T00:40:44;9.00;;;4.00;;
11548;SDS011;61444;59.472;18.306;2023-12-07T00:42:53;7.00;;;3.80;;
11548;SDS011;61444;59.472;18.306;2023-12-07T00:45:02;8.10;;;3.63;;
11548;SDS011;61444;59.472;18.306;2023-12-07T00:47:11;7.13;;;3.17;;
11548;SDS011;61444;59.472;18.306;2023-12-07T00:49:19;8.97;;;3.47;;
11548;SDS011;61444;59.472;18.306;2023-12-07T00:51:31;7.33;;;3.83;;
11548;SDS011;61444;59.472;18.306;2023-12-07T00:53:42;6.73;;;3.90;;
11548;SDS011;61444;59.472;18.306;2023-12-07T00:55:51;7.37;;;3.60;;
11548;SDS011;61444;59.472;18.306;2023-12-07T00:57:59;7.37;;;3.90;;
11548;SDS011;61444;59.472;18.306;2023-12-07T01:00:09;8.80;;;4.03;;
11548;SDS011;61444;59.472;18.306;2023-12-07T01:02:18;7.70;;;3.67;;
11548;SDS011;61444;59.472;18.306;2023-12-07T01:04:26;6.03;;;3.53;;
11548;SDS011;61444;59.472;18.306;2023-12-07T01:06:36;6.47;;;3.07;;
11548;SDS011;61444;59.472;18.306;2023-12-07T01:08:46;4.90;;;2.80;;
11548;SDS011;61444;59.472;18.306;2023-12-07T01:10:55;6.43;;;3.47;;
11548;SDS011;61444;59.472;18.306;2023-12-07T01:13:04;5.67;;;3.00;;
11548;SDS011;61444;59.472;18.306;2023-12-07T01:15:13;7.20;;;3.33;;
11548;SDS011;61444;59.472;18.306;2023-12-07T01:17:21;7.43;;;3.33;;
11548;SDS011;61444;59.472;18.306;2023-12-07T01:19:30;6.03;;;3.10;;
11548;SDS011;61444;59.472;18.306;2023-12-07T01:21:41;5.70;;;3.03;;
11548;SDS011;61444;59.472;18.306;2023-12-07T01:23:54;5.67;;;3.20;;
11548;SDS011;61444;59.472;18.306;2023-12-07T01:26:16;5.23;;;2.87;;
11548;SDS011;61444;59.472;18.306;2023-12-07T01:28:24;4.33;;;2.60;;
11548;SDS011;61444;59.472;18.306;2023-12-07T01:30:33;6.47;;;2.70;;
11548;SDS011;61444;59.472;18.306;2023-12-07T01:32:44;4.83;;;2.17;;
11548;SDS011;61444;59.472;18.306;2023-12-07T01:34:53;4.40;;;2.67;;
11548;SDS011;61444;59.472;18.306;2023-12-07T01:37:02;6.13;;;2.93;;
11548;SDS011;61444;59.472;18.306;2023-12-07T01:39:12;5.90;;;3.23;;
11548;SDS011;61444;59.472;18.306;2023-12-07T01:41:22;5.03;;;2.47;;
11548;SDS011;61444;59.472;18.306;2023-12-07T01:43:31;4.23;;;2.43;;
11548;SDS011;61444;59.472;18.306;2023-12-07T01:45:41;4.47;;;2.37;;
11548;SDS011;61444;59.472;18.306;2023-12-07T01:47:50;4.67;;;2.23;;
11548;SDS011;61444;59.472;18.306;2023-12-07T01:50:00;6.37;;;2.43;;
11548;SDS011;61444;59.472;18.306;2023-12-07T01:52:11;4.80;;;2.40;;
11548;SDS011;61444;59.472;18.306;2023-12-07T01:54:22;5.17;;;2.27;;
11548;SDS011;61444;59.472;18.306;2023-12-07T01:56:31;4.93;;;2.83;;
11548;SDS011;61444;59.472;18.306;2023-12-07T01:58:40;4.03;;;2.13;;
11548;SDS011;61444;59.472;18.306;2023-12-07T02:00:49;5.20;;;2.50;;
11548;SDS011;61444;59.472;18.306;2023-12-07T02:02:57;7.10;;;2.13;;
11548;SDS011;61444;59.472;18.306;2023-12-07T02:05:06;6.90;;;2.47;;
11548;SDS011;61444;59.472;18.306;2023-12-07T02:07:15;4.63;;;2.13;;
11548;SDS011;61444;59.472;18.306;2023-12-07T02:09:27;3.60;;;2.23;;
11548;SDS011;61444;59.472;18.306;2023-12-07T02:11:36;4.20;;;1.73;;
11548;SDS011;61444;59.472;18.306;2023-12-07T02:13:45;4.57;;;2.50;;
11548;SDS011;61444;59.472;18.306;2023-12-07T02:15:54;3.90;;;2.33;;
11548;SDS011;61444;59.472;18.306;2023-12-07T02:18:06;3.40;;;2.23;;
11548;SDS011;61444;59.472;18.306;2023-12-07T02:20:20;4.20;;;2.20;;
11548;SDS011;61444;59.472;18.306;2023-12-07T02:22:32;4.90;;;2.50;;
11548;SDS011;61444;59.472;18.306;2023-12-07T02:24:45;4.10;;;2.23;;
11548;SDS011;61444;59.472;18.306;2023-12-07T02:26:58;5.30;;;2.47;;
11548;SDS011;61444;59.472;18.306;2023-12-07T02:29:06;4.67;;;1.97;;
11548;SDS011;61444;59.472;18.306;2023-12-07T02:31:15;3.40;;;2.10;;
11548;SDS011;61444;59.472;18.306;2023-12-07T02:33:24;4.10;;;1.90;;
11548;SDS011;61444;59.472;18.306;2023-12-07T02:35:34;3.43;;;2.27;;
11548;SDS011;61444;59.472;18.306;2023-12-07T02:37:44;3.73;;;2.10;;
11548;SDS011;61444;59.472;18.306;2023-12-07T02:39:53;4.23;;;2.10;;
11548;SDS011;61444;59.472;18.306;2023-12-07T02:42:05;3.27;;;2.00;;
11548;SDS011;61444;59.472;18.306;2023-12-07T02:44:14;3.40;;;1.83;;
11548;SDS011;61444;59.472;18.306;2023-12-07T02:46:23;3.93;;;1.97;;
11548;SDS011;61444;59.472;18.306;2023-12-07T02:48:32;2.90;;;1.87;;
11548;SDS011;61444;59.472;18.306;2023-12-07T02:50:41;3.00;;;2.00;;
11548;SDS011;61444;59.472;18.306;2023-12-07T02:52:50;3.33;;;2.20;;
11548;SDS011;61444;59.472;18.306;2023-12-07T02:55:00;3.80;;;2.00;;
11548;SDS011;61444;59.472;18.306;2023-12-07T02:57:10;5.37;;;2.83;;
11548;SDS011;61444;59.472;18.306;2023-12-07T02:59:21;3.97;;;2.00;;
11548;SDS011;61444;59.472;18.306;2023-12-07T03:01:30;4.40;;;1.97;;
11548;SDS011;61444;59.472;18.306;2023-12-07T03:03:38;3.50;;;2.07;;
11548;SDS011;61444;59.472;18.306;2023-12-07T03:05:48;3.73;;;1.90;;
11548;SDS011;61444;59.472;18.306;2023-12-07T03:07:57;3.90;;;2.10;;
11548;SDS011;61444;59.472;18.306;2023-12-07T03:10:06;3.07;;;2.00;;
11548;SDS011;61444;59.472;18.306;2023-12-07T03:12:16;4.23;;;2.20;;
11548;SDS011;61444;59.472;18.306;2023-12-07T03:14:25;2.87;;;1.60;;
11548;SDS011;61444;59.472;18.306;2023-12-07T03:16:34;4.03;;;2.07;;
11548;SDS011;61444;59.472;18.306;2023-12-07T03:18:43;4.43;;;2.07;;
11548;SDS011;61444;59.472;18.306;2023-12-07T03:20:52;3.33;;;1.70;;
11548;SDS011;61444;59.472;18.306;2023-12-07T03:23:00;2.77;;;1.90;;
11548;SDS011;61444;59.472;18.306;2023-12-07T03:25:10;4.77;;;2.17;;
11548;SDS011;61444;59.472;18.306;2023-12-07T03:27:19;2.73;;;1.77;;
11548;SDS011;61444;59.472;18.306;2023-12-07T03:29:29;3.00;;;1.60;;
11548;SDS011;61444;59.472;18.306;2023-12-07T03:31:37;5.20;;;1.97;;
11548;SDS011;61444;59.472;18.306;2023-12-07T03:33:46;3.90;;;1.83;;
11548;SDS011;61444;59.472;18.306;2023-12-07T03:35:53;2.63;;;1.47;;
11548;SDS011;61444;59.472;18.306;2023-12-07T03:38:03;2.87;;;1.70;;
11548;SDS011;61444;59.472;18.306;2023-12-07T03:40:12;2.27;;;1.67;;
11548;SDS011;61444;59.472;18.306;2023-12-07T03:42:22;5.50;;;1.97;;
11548;SDS011;61444;59.472;18.306;2023-12-07T03:44:51;4.17;;;1.57;;
11548;SDS011;61444;59.472;18.306;2023-12-07T03:47:00;2.60;;;1.70;;
11548;SDS011;61444;59.472;18.306;2023-12-07T03:49:09;2.77;;;1.70;;
11548;SDS011;61444;59.472;18.306;2023-12-07T03:51:18;4.87;;;1.50;;
11548;SDS011;61444;59.472;18.306;2023-12-07T03:53:26;3.23;;;1.60;;
11548;SDS011;61444;59.472;18.306;2023-12-07T03:55:35;4.87;;;2.20;;
11548;SDS011;61444;59.472;18.306;2023-12-07T03:57:46;3.93;;;1.87;;
11548;SDS011;61444;59.472;18.306;2023-12-07T03:59:55;4.40;;;1.70;;
11548;SDS011;61444;59.472;18.306;2023-12-07T04:02:04;2.13;;;1.40;;
11548;SDS011;61444;59.472;18.306;2023-12-07T04:04:12;3.20;;;1.60;;
11548;SDS011;61444;59.472;18.306;2023-12-07T04:06:22;2.33;;;1.50;;
11548;SDS011;61444;59.472;18.306;2023-12-07T04:08:31;3.53;;;1.87;;
11548;SDS011;61444;59.472;18.306;2023-12-07T04:10:41;3.60;;;1.70;;
11548;SDS011;61444;59.472;18.306;2023-12-07T04:12:52;2.50;;;1.40;;
11548;SDS011;61444;59.472;18.306;2023-12-07T04:15:01;3.67;;;1.63;;
11548;SDS011;61444;59.472;18.306;2023-12-07T04:17:10;3.20;;;1.70;;
11548;SDS011;61444;59.472;18.306;2023-12-07T04:19:19;3.57;;;2.00;;
11548;SDS011;61444;59.472;18.306;2023-12-07T04:21:27;2.50;;;1.70;;
11548;SDS011;61444;59.472;18.306;2023-12-07T04:23:36;3.27;;;1.83;;
11548;SDS011;61444;59.472;18.306;2023-12-07T04:25:45;4.03;;;1.80;;
11548;SDS011;61444;59.472;18.306;2023-12-07T04:27:56;3.80;;;2.03;;
11548;SDS011;61444;59.472;18.306;2023-12-07T04:30:05;3.00;;;1.60;;
11548;SDS011;61444;59.472;18.306;2023-12-07T04:32:14;2.27;;;1.60;;
11548;SDS011;61444;59.472;18.306;2023-12-07T04:34:23;3.30;;;1.80;;
11548;SDS011;61444;59.472;18.306;2023-12-07T04:36:32;3.20;;;1.60;;
11548;SDS011;61444;59.472;18.306;2023-12-07T04:38:41;4.57;;;2.37;;
11548;SDS011;61444;59.472;18.306;2023-12-07T04:40:50;4.67;;;2.57;;
11548;SDS011;61444;59.472;18.306;2023-12-07T04:43:01;3.97;;;2.20;;
11548;SDS011;61444;59.472;18.306;2023-12-07T04:45:10;4.83;;;1.77;;
11548;SDS011;61444;59.472;18.306;2023-12-07T04:47:19;4.37;;;2.50;;
11548;SDS011;61444;59.472;18.306;2023-12-07T04:49:28;3.83;;;2.00;;
11548;SDS011;61444;59.472;18.306;2023-12-07T04:51:36;3.50;;;1.83;;
11548;SDS011;61444;59.472;18.306;2023-12-07T04:53:46;3.23;;;2.20;;
11548;SDS011;61444;59.472;18.306;2023-12-07T04:55:55;4.47;;;2.17;;
11548;SDS011;61444;59.472;18.306;2023-12-07T04:58:08;3.50;;;1.87;;
11548;SDS011;61444;59.472;18.306;2023-12-07T05:00:19;2.87;;;1.80;;
11548;SDS011;61444;59.472;18.306;2023-12-07T05:02:28;3.87;;;1.90;;
11548;SDS011;61444;59.472;18.306;2023-12-07T05:04:37;3.63;;;2.00;;
11548;SDS011;61444;59.472;18.306;2023-12-07T05:06:47;5.03;;;2.30;;
11548;SDS011;61444;59.472;18.306;2023-12-07T05:08:56;2.13;;;1.53;;
11548;SDS011;61444;59.472;18.306;2023-12-07T05:11:05;3.43;;;2.00;;
11548;SDS011;61444;59.472;18.306;2023-12-07T05:13:16;3.67;;;2.17;;
11548;SDS011;61444;59.472;18.306;2023-12-07T05:15:25;6.13;;;3.13;;
11548;SDS011;61444;59.472;18.306;2023-12-07T05:17:32;4.63;;;2.67;;
11548;SDS011;61444;59.472;18.306;2023-12-07T05:19:41;2.87;;;1.90;;
11548;SDS011;61444;59.472;18.306;2023-12-07T05:21:51;4.13;;;2.23;;
11548;SDS011;61444;59.472;18.306;2023-12-07T05:24:00;6.57;;;3.80;;
11548;SDS011;61444;59.472;18.306;2023-12-07T05:26:08;7.33;;;4.00;;
11548;SDS011;61444;59.472;18.306;2023-12-07T05:28:19;7.73;;;4.40;;
11548;SDS011;61444;59.472;18.306;2023-12-07T05:30:30;6.77;;;4.47;;
11548;SDS011;61444;59.472;18.306;2023-12-07T05:32:39;6.30;;;4.33;;
11548;SDS011;61444;59.472;18.306;2023-12-07T05:34:47;5.90;;;3.57;;
11548;SDS011;61444;59.472;18.306;2023-12-07T05:36:57;5.13;;;2.83;;
11548;SDS011;61444;59.472;18.306;2023-12-07T05:39:06;3.77;;;2.53;;
11548;SDS011;61444;59.472;18.306;2023-12-07T05:41:14;3.87;;;2.30;;
11548;SDS011;61444;59.472;18.306;2023-12-07T05:43:25;4.70;;;2.60;;
11548;SDS011;61444;59.472;18.306;2023-12-07T05:45:33;5.67;;;2.53;;
11548;SDS011;61444;59.472;18.306;2023-12-07T05:47:42;5.60;;;2.50;;
11548;SDS011;61444;59.472;18.306;2023-12-07T05:49:51;4.47;;;2.50;;
11548;SDS011;61444;59.472;18.306;2023-12-07T05:52:00;5.77;;;3.30;;
11548;SDS011;61444;59.472;18.306;2023-12-07T05:54:10;4.93;;;3.20;;
11548;SDS011;61444;59.472;18.306;2023-12-07T05:56:18;5.53;;;3.27;;
11548;SDS011;61444;59.472;18.306;2023-12-07T05:58:29;7.30;;;2.90;;
11548;SDS011;61444;59.472;18.306;2023-12-07T06:00:39;6.33;;;2.83;;
11548;SDS011;61444;59.472;18.306;2023-12-07T06:02:48;5.10;;;2.90;;
11548;SDS011;61444;59.472;18.306;2023-12-07T06:04:57;5.90;;;3.03;;
11548;SDS011;61444;59.472;18.306;2023-12-07T06:07:06;6.30;;;3.27;;
11548;SDS011;61444;59.472;18.306;2023-12-07T06:09:14;6.33;;;2.93;;
11548;SDS011;61444;59.472;18.306;2023-12-07T06:11:24;7.23;;;3.17;;
11548;SDS011;61444;59.472;18.306;2023-12-07T06:13:34;6.57;;;3.23;;
11548;SDS011;61444;59.472;18.306;2023-12-07T06:15:43;5.30;;;2.93;;
11548;SDS011;61444;59.472;18.306;2023-12-07T06:17:52;5.00;;;2.80;;
11548;SDS011;61444;59.472;18.306;2023-12-07T06:20:01;7.00;;;2.80;;
11548;SDS011;61444;59.472;18.306;2023-12-07T06:22:11;7.80;;;2.80;;
11548;SDS011;61444;59.472;18.306;2023-12-07T06:24:20;6.80;;;3.10;;
11548;SDS011;61444;59.472;18.306;2023-12-07T06:26:31;4.30;;;2.53;;
11548;SDS011;61444;59.472;18.306;2023-12-07T06:28:41;6.17;;;3.20;;
11548;SDS011;61444;59.472;18.306;2023-12-07T06:30:51;6.53;;;3.07;;
11548;SDS011;61444;59.472;18.306;2023-12-07T06:33:00;6.20;;;2.93;;
11548;SDS011;61444;59.472;18.306;2023-12-07T06:35:08;6.47;;;3.33;;
11548;SDS011;61444;59.472;18.306;2023-12-07T06:37:17;4.33;;;2.80;;
11548;SDS011;61444;59.472;18.306;2023-12-07T06:39:27;6.43;;;3.47;;
11548;SDS011;61444;59.472;18.306;2023-12-07T06:41:36;6.33;;;3.70;;
11548;SDS011;61444;59.472;18.306;2023-12-07T06:43:46;9.00;;;4.33;;
11548;SDS011;61444;59.472;18.306;2023-12-07T06:45:55;7.40;;;4.50;;
11548;SDS011;61444;59.472;18.306;2023-12-07T06:48:05;7.33;;;4.57;;
11548;SDS011;61444;59.472;18.306;2023-12-07T06:50:14;7.23;;;4.13;;
11548;SDS011;61444;59.472;18.306;2023-12-07T06:52:22;7.80;;;3.80;;
11548;SDS011;61444;59.472;18.306;2023-12-07T06:54:31;8.20;;;4.40;;
11548;SDS011;61444;59.472;18.306;2023-12-07T06:56:40;9.33;;;3.90;;
11548;SDS011;61444;59.472;18.306;2023-12-07T06:58:50;7.10;;;3.53;;
11548;SDS011;61444;59.472;18.306;2023-12-07T07:00:59;7.33;;;3.77;;
11548;SDS011;61444;59.472;18.306;2023-12-07T07:03:08;6.07;;;3.10;;
11548;SDS011;61444;59.472;18.306;2023-12-07T07:05:16;6.47;;;3.40;;
11548;SDS011;61444;59.472;18.306;2023-12-07T07:07:25;5.10;;;2.97;;
11548;SDS011;61444;59.472;18.306;2023-12-07T07:09:37;5.60;;;2.93;;
11548;SDS011;61444;59.472;18.306;2023-12-07T07:11:47;6.30;;;2.83;;
11548;SDS011;61444;59.472;18.306;2023-12-07T07:13:57;5.77;;;2.90;;
11548;SDS011;61444;59.472;18.306;2023-12-07T07:16:07;5.13;;;3.00;;
11548;SDS011;61444;59.472;18.306;2023-12-07T07:18:16;9.70;;;3.70;;
11548;SDS011;61444;59.472;18.306;2023-12-07T07:20:25;6.50;;;3.33;;
11548;SDS011;61444;59.472;18.306;2023-12-07T07:22:34;7.23;;;3.43;;
11548;SDS011;61444;59.472;18.306;2023-12-07T07:24:43;9.60;;;4.47;;
11548;SDS011;61444;59.472;18.306;2023-12-07T07:26:52;6.03;;;3.87;;
11548;SDS011;61444;59.472;18.306;2023-12-07T07:29:02;7.20;;;4.27;;
11548;SDS011;61444;59.472;18.306;2023-12-07T07:31:12;8.23;;;4.27;;
11548;SDS011;61444;59.472;18.306;2023-12-07T07:33:21;6.80;;;3.70;;
11548;SDS011;61444;59.472;18.306;2023-12-07T07:35:30;8.80;;;4.20;;
11548;SDS011;61444;59.472;18.306;2023-12-07T07:37:39;9.27;;;4.27;;
11548;SDS011;61444;59.472;18.306;2023-12-07T07:39:48;6.90;;;3.77;;
11548;SDS011;61444;59.472;18.306;2023-12-07T07:41:57;7.87;;;4.07;;
11548;SDS011;61444;59.472;18.306;2023-12-07T07:44:18;8.43;;;4.30;;
11548;SDS011;61444;59.472;18.306;2023-12-07T07:46:27;7.63;;;3.80;;
11548;SDS011;61444;59.472;18.306;2023-12-07T07:48:36;7.77;;;3.70;;
11548;SDS011;61444;59.472;18.306;2023-12-07T07:50:46;9.87;;;3.77;;
11548;SDS011;61444;59.472;18.306;2023-12-07T07:52:54;8.30;;;3.93;;
11548;SDS011;61444;59.472;18.306;2023-12-07T07:55:03;6.70;;;3.63;;
11548;SDS011;61444;59.472;18.306;2023-12-07T07:57:12;9.20;;;3.70;;
11548;SDS011;61444;59.472;18.306;2023-12-07T07:59:23;9.47;;;4.27;;
11548;SDS011;61444;59.472;18.306;2023-12-07T08:01:32;8.00;;;3.90;;
11548;SDS011;61444;59.472;18.306;2023-12-07T08:03:41;6.23;;;3.10;;
11548;SDS011;61444;59.472;18.306;2023-12-07T08:05:49;5.37;;;3.20;;
11548;SDS011;61444;59.472;18.306;2023-12-07T08:07:58;10.20;;;3.80;;
11548;SDS011;61444;59.472;18.306;2023-12-07T08:10:07;6.43;;;3.80;;
11548;SDS011;61444;59.472;18.306;2023-12-07T08:12:16;9.43;;;4.87;;
11548;SDS011;61444;59.472;18.306;2023-12-07T08:14:27;11.57;;;4.40;;
11548;SDS011;61444;59.472;18.306;2023-12-07T08:16:35;9.83;;;5.13;;
11548;SDS011;61444;59.472;18.306;2023-12-07T08:18:44;9.73;;;5.20;;
11548;SDS011;61444;59.472;18.306;2023-12-07T08:20:54;8.30;;;4.83;;
11548;SDS011;61444;59.472;18.306;2023-12-07T08:23:02;9.73;;;4.50;;
11548;SDS011;61444;59.472;18.306;2023-12-07T08:25:11;8.60;;;4.60;;
11548;SDS011;61444;59.472;18.306;2023-12-07T08:27:20;11.93;;;5.00;;
11548;SDS011;61444;59.472;18.306;2023-12-07T08:29:31;12.77;;;5.50;;
11548;SDS011;61444;59.472;18.306;2023-12-07T08:31:40;11.27;;;5.20;;
11548;SDS011;61444;59.472;18.306;2023-12-07T08:33:49;11.83;;;6.57;;
11548;SDS011;61444;59.472;18.306;2023-12-07T08:35:57;11.73;;;6.07;;
11548;SDS011;61444;59.472;18.306;2023-12-07T08:38:06;12.00;;;5.97;;
11548;SDS011;61444;59.472;18.306;2023-12-07T08:40:15;8.90;;;5.20;;
11548;SDS011;61444;59.472;18.306;2023-12-07T08:42:24;9.77;;;4.63;;
11548;SDS011;61444;59.472;18.306;2023-12-07T08:44:34;8.40;;;4.53;;
11548;SDS011;61444;59.472;18.306;2023-12-07T08:46:43;8.70;;;4.60;;
11548;SDS011;61444;59.472;18.306;2023-12-07T08:48:53;8.23;;;4.13;;
11548;SDS011;61444;59.472;18.306;2023-12-07T08:51:03;10.43;;;4.73;;
11548;SDS011;61444;59.472;18.306;2023-12-07T08:53:13;9.43;;;4.60;;
11548;SDS011;61444;59.472;18.306;2023-12-07T08:55:20;10.53;;;4.83;;
11548;SDS011;61444;59.472;18.306;2023-12-07T08:57:29;9.03;;;5.13;;
11548;SDS011;61444;59.472;18.306;2023-12-07T08:59:39;8.33;;;4.47;;
11548;SDS011;61444;59.472;18.306;2023-12-07T09:01:48;8.30;;;4.90;;
11548;SDS011;61444;59.472;18.306;2023-12-07T09:03:57;10.33;;;5.40;;
11548;SDS011;61444;59.472;18.306;2023-12-07T09:06:07;9.03;;;5.37;;
11548;SDS011;61444;59.472;18.306;2023-12-07T09:08:16;12.73;;;5.53;;
11548;SDS011;61444;59.472;18.306;2023-12-07T09:10:25;11.20;;;5.27;;
11548;SDS011;61444;59.472;18.306;2023-12-07T09:12:34;11.80;;;5.70;;
11548;SDS011;61444;59.472;18.306;2023-12-07T09:14:46;10.87;;;5.50;;
11548;SDS011;61444;59.472;18.306;2023-12-07T09:17:00;12.43;;;5.70;;
11548;SDS011;61444;59.472;18.306;2023-12-07T09:19:10;11.20;;;5.33;;
11548;SDS011;61444;59.472;18.306;2023-12-07T09:21:20;12.83;;;5.83;;
11548;SDS011;61444;59.472;18.306;2023-12-07T09:23:29;13.37;;;6.50;;
11548;SDS011;61444;59.472;18.306;2023-12-07T09:25:38;17.53;;;7.83;;
11548;SDS011;61444;59.472;18.306;2023-12-07T09:27:47;16.67;;;7.40;;
11548;SDS011;61444;59.472;18.306;2023-12-07T09:30:00;18.13;;;8.50;;
11548;SDS011;61444;59.472;18.306;2023-12-07T09:32:09;19.03;;;9.50;;
11548;SDS011;61444;59.472;18.306;2023-12-07T09:34:18;28.50;;;13.37;;
11548;SDS011;61444;59.472;18.306;2023-12-07T09:36:28;25.43;;;12.43;;
11548;SDS011;61444;59.472;18.306;2023-12-07T09:38:37;36.50;;;17.07;;
11548;SDS011;61444;59.472;18.306;2023-12-07T09:40:52;29.27;;;13.47;;
11548;SDS011;61444;59.472;18.306;2023-12-07T09:43:01;22.00;;;11.07;;
11548;SDS011;61444;59.472;18.306;2023-12-07T09:45:12;20.70;;;9.53;;
11548;SDS011;61444;59.472;18.306;2023-12-07T09:47:23;22.00;;;9.80;;
11548;SDS011;61444;59.472;18.306;2023-12-07T09:49:42;20.97;;;10.87;;
11548;SDS011;61444;59.472;18.306;2023-12-07T09:51:51;19.37;;;9.57;;
11548;SDS011;61444;59.472;18.306;2023-12-07T09:54:05;21.00;;;9.53;;
11548;SDS011;61444;59.472;18.306;2023-12-07T09:56:17;18.53;;;8.73;;
11548;SDS011;61444;59.472;18.306;2023-12-07T09:58:26;23.70;;;9.27;;
11548;SDS011;61444;59.472;18.306;2023-12-07T10:00:48;16.07;;;9.20;;
11548;SDS011;61444;59.472;18.306;2023-12-07T10:02:57;14.27;;;6.90;;
11548;SDS011;61444;59.472;18.306;2023-12-07T10:05:07;17.30;;;7.63;;
11548;SDS011;61444;59.472;18.306;2023-12-07T10:07:17;16.67;;;7.07;;
11548;SDS011;61444;59.472;18.306;2023-12-07T10:09:40;15.03;;;7.13;;
11548;SDS011;61444;59.472;18.306;2023-12-07T10:11:57;14.23;;;7.73;;
11548;SDS011;61444;59.472;18.306;2023-12-07T10:14:13;13.60;;;6.93;;
11548;SDS011;61444;59.472;18.306;2023-12-07T10:16:23;13.73;;;7.07;;
11548;SDS011;61444;59.472;18.306;2023-12-07T10:18:32;16.70;;;7.40;;
11548;SDS011;61444;59.472;18.306;2023-12-07T10:20:44;14.37;;;7.77;;
11548;SDS011;61444;59.472;18.306;2023-12-07T10:23:00;19.33;;;9.00;;
11548;SDS011;61444;59.472;18.306;2023-12-07T10:25:10;17.23;;;8.60;;
11548;SDS011;61444;59.472;18.306;2023-12-07T10:27:21;18.07;;;9.43;;
11548;SDS011;61444;59.472;18.306;2023-12-07T10:29:30;17.60;;;9.67;;
11548;SDS011;61444;59.472;18.306;2023-12-07T10:31:44;17.37;;;8.80;;
11548;SDS011;61444;59.472;18.306;2023-12-07T10:33:54;16.67;;;8.10;;
11548;SDS011;61444;59.472;18.306;2023-12-07T10:36:02;17.30;;;9.30;;
11548;SDS011;61444;59.472;18.306;2023-12-07T10:38:13;15.73;;;7.80;;
11548;SDS011;61444;59.472;18.306;2023-12-07T10:40:22;15.57;;;7.47;;
11548;SDS011;61444;59.472;18.306;2023-12-07T10:42:32;17.80;;;8.37;;
11548;SDS011;61444;59.472;18.306;2023-12-07T10:44:43;15.57;;;8.73;;
11548;SDS011;61444;59.472;18.306;2023-12-07T10:46:54;16.10;;;8.00;;
11548;SDS011;61444;59.472;18.306;2023-12-07T10:49:05;14.50;;;7.93;;
11548;SDS011;61444;59.472;18.306;2023-12-07T10:51:29;13.87;;;7.10;;
11548;SDS011;61444;59.472;18.306;2023-12-07T10:53:40;12.57;;;7.13;;
11548;SDS011;61444;59.472;18.306;2023-12-07T10:55:52;13.53;;;7.33;;
11548;SDS011;61444;59.472;18.306;2023-12-07T10:58:01;13.03;;;7.03;;
11548;SDS011;61444;59.472;18.306;2023-12-07T11:00:09;14.30;;;8.23;;
11548;SDS011;61444;59.472;18.306;2023-12-07T11:02:21;16.33;;;8.43;;
11548;SDS011;61444;59.472;18.306;2023-12-07T11:04:31;15.67;;;8.20;;
11548;SDS011;61444;59.472;18.306;2023-12-07T11:06:39;15.60;;;7.87;;
11548;SDS011;61444;59.472;18.306;2023-12-07T11:08:49;16.50;;;8.37;;
11548;SDS011;61444;59.472;18.306;2023-12-07T11:11:00;12.57;;;7.67;;
11548;SDS011;61444;59.472;18.306;2023-12-07T11:13:11;11.97;;;6.83;;
11548;SDS011;61444;59.472;18.306;2023-12-07T11:15:21;11.80;;;7.00;;
11548;SDS011;61444;59.472;18.306;2023-12-07T11:17:31;16.50;;;7.17;;
11548;SDS011;61444;59.472;18.306;2023-12-07T11:19:56;15.57;;;7.90;;
11548;SDS011;61444;59.472;18.306;2023-12-07T11:22:06;13.67;;;7.53;;
11548;SDS011;61444;59.472;18.306;2023-12-07T11:24:16;14.03;;;8.03;;
11548;SDS011;61444;59.472;18.306;2023-12-07T11:26:25;12.37;;;7.50;;
11548;SDS011;61444;59.472;18.306;2023-12-07T11:28:35;13.80;;;8.10;;
11548;SDS011;61444;59.472;18.306;2023-12-07T11:30:45;11.83;;;7.47;;
11548;SDS011;61444;59.472;18.306;2023-12-07T11:32:58;10.97;;;6.90;;
11548;SDS011;61444;59.472;18.306;2023-12-07T11:35:08;12.10;;;7.47;;
11548;SDS011;61444;59.472;18.306;2023-12-07T11:37:20;10.53;;;6.80;;
11548;SDS011;61444;59.472;18.306;2023-12-07T11:39:29;12.50;;;7.17;;
11548;SDS011;61444;59.472;18.306;2023-12-07T11:41:40;12.17;;;6.83;;
11548;SDS011;61444;59.472;18.306;2023-12-07T11:43:51;9.03;;;6.07;;
11548;SDS011;61444;59.472;18.306;2023-12-07T11:46:02;11.27;;;6.50;;
11548;SDS011;61444;59.472;18.306;2023-12-07T11:48:13;9.93;;;6.37;;
11548;SDS011;61444;59.472;18.306;2023-12-07T11:50:24;13.17;;;6.33;;
11548;SDS011;61444;59.472;18.306;2023-12-07T11:52:33;10.90;;;6.90;;
11548;SDS011;61444;59.472;18.306;2023-12-07T11:54:45;12.10;;;7.20;;
11548;SDS011;61444;59.472;18.306;2023-12-07T11:56:54;11.23;;;7.13;;
11548;SDS011;61444;59.472;18.306;2023-12-07T11:59:03;10.37;;;5.93;;
11548;SDS011;61444;59.472;18.306;2023-12-07T12:01:14;11.13;;;6.70;;
11548;SDS011;61444;59.472;18.306;2023-12-07T12:03:26;12.10;;;6.63;;
11548;SDS011;61444;59.472;18.306;2023-12-07T12:05:35;10.53;;;6.27;;
11548;SDS011;61444;59.472;18.306;2023-12-07T12:07:45;15.07;;;7.33;;
11548;SDS011;61444;59.472;18.306;2023-12-07T12:09:55;11.80;;;6.60;;
11548;SDS011;61444;59.472;18.306;2023-12-07T12:12:06;12.67;;;6.70;;
11548;SDS011;61444;59.472;18.306;2023-12-07T12:14:15;10.47;;;6.23;;
11548;SDS011;61444;59.472;18.306;2023-12-07T12:16:26;10.37;;;5.63;;
11548;SDS011;61444;59.472;18.306;2023-12-07T12:18:40;11.93;;;6.63;;
11548;SDS011;61444;59.472;18.306;2023-12-07T12:20:50;8.83;;;5.63;;
11548;SDS011;61444;59.472;18.306;2023-12-07T12:22:58;10.10;;;5.93;;
11548;SDS011;61444;59.472;18.306;2023-12-07T12:25:08;11.90;;;6.30;;
11548;SDS011;61444;59.472;18.306;2023-12-07T12:27:18;8.37;;;5.47;;
11548;SDS011;61444;59.472;18.306;2023-12-07T12:29:28;9.90;;;6.23;;
11548;SDS011;61444;59.472;18.306;2023-12-07T12:31:40;11.57;;;6.10;;
11548;SDS011;61444;59.472;18.306;2023-12-07T12:33:51;9.07;;;5.77;;
11548;SDS011;61444;59.472;18.306;2023-12-07T12:36:02;7.97;;;5.00;;
11548;SDS011;61444;59.472;18.306;2023-12-07T12:38:12;7.77;;;5.07;;
11548;SDS011;61444;59.472;18.306;2023-12-07T12:40:36;7.03;;;4.50;;
11548;SDS011;61444;59.472;18.306;2023-12-07T12:42:49;6.90;;;4.47;;
11548;SDS011;61444;59.472;18.306;2023-12-07T12:45:02;7.87;;;5.07;;
11548;SDS011;61444;59.472;18.306;2023-12-07T12:47:12;6.90;;;4.50;;
11548;SDS011;61444;59.472;18.306;2023-12-07T12:49:24;7.87;;;4.83;;